01:09 Rennrad Innsbruck ARZ - Radweg - Voels - Hatting - Pettnau - Moetz
Ort Innsbruck Datum 07.09.2017 17:19:05
Kategorie Rennrad
Distanz 40,12 Kilometer Steigung 156,0 Meter Gefälle -104,0 Meter
Gesamt Zeit 01:10:11 Aktiv 01:08:52 Pause 00:01:19
Durchs. Tempo 34,9 km/h Tempo max. 48,0 km/h Tempo min. 16,5 km/h
Kalorien 0 Durchs. HF 129 BPM HF max. 147 BPM
Wetter 19 °C PartClouds Min/Max: 17,6 °C/19,5 °C; Druck: 1008,7 mbar; Rel. Feuchte: 64,5%; Taupunkt: 11,5 °C; Windgeschwindigkeit: 6,6 km/h; Niederschlag: 0,0mm
Ausrüstung Bontrager - RL Road
Shimano - CN-HG601-11
Scott - Addict 20
Notiz Innsbruck ARZ - Radweg - Voels - Hatting - Pettnau - Moetz ...trocken, eher frisch, bis Hatting leichter Rueckenwind, dann bis Telfs laufend wechselnd und ab Telfs mittlerer Rueckenwind - locker bis flott ... garmin connect
Splits
Distanz (km) Gesamt Zeit Split Zeit Split Tempo Split Tempo Höhenprofil (m)
1,00 00:01:52 00:01:52 00:01:52 32,0 -3,34
2,00 00:03:48 00:01:56 00:01:56 30,9 -4,14
3,00 00:05:34 00:01:45 00:01:45 34,2 2,20
4,00 00:07:18 00:01:43 00:01:44 34,7 1,78
5,00 00:09:00 00:01:42 00:01:43 35,1 3,62
6,00 00:11:01 00:02:00 00:02:01 29,8 10,24
7,00 00:12:51 00:01:50 00:01:50 32,6 -4,36
8,00 00:14:30 00:01:39 00:01:39 36,4 0,97
9,00 00:16:08 00:01:37 00:01:38 36,9 3,43
10,00 00:18:02 00:01:53 00:01:54 31,7 15,27
11,00 00:20:02 00:01:59 00:02:00 30,0 11,60
12,00 00:21:28 00:01:26 00:01:26 41,6 -17,22
13,00 00:22:55 00:01:27 00:01:27 41,2 -6,36
14,00 00:24:43 00:01:47 00:01:47 33,6 5,51
15,00 00:26:28 00:01:45 00:01:46 34,1 0,57
16,00 00:28:14 00:01:45 00:01:46 34,1 1,10
17,00 00:30:05 00:01:51 00:01:51 32,4 5,54
18,00 00:32:05 00:02:00 00:02:00 29,9 13,70
19,00 00:33:49 00:01:44 00:01:44 34,6 -8,12
20,00 00:35:19 00:01:29 00:01:29 40,4 -6,55
21,00 00:37:15 00:01:56 00:01:57 30,9 3,75
22,00 00:39:03 00:01:47 00:01:48 33,4 0,80
23,00 00:40:55 00:01:52 00:01:52 32,0 0,00
24,00 00:42:38 00:01:42 00:01:42 35,2 8,26
25,00 00:44:23 00:01:45 00:01:45 34,2 -3,37
26,00 00:46:08 00:01:45 00:01:45 34,2 3,43
27,00 00:47:44 00:01:35 00:01:36 37,5 1,12
28,00 00:49:17 00:01:33 00:01:33 38,7 -0,46
29,00 00:51:00 00:01:42 00:01:43 35,0 6,66
30,00 00:53:08 00:02:07 00:02:07 28,3 -2,36
31,00 00:54:39 00:01:31 00:01:32 39,2 0,79
32,00 00:56:07 00:01:27 00:01:28 41,0 2,67
33,00 00:57:37 00:01:29 00:01:30 40,1 7,07
34,00 00:59:10 00:01:33 00:01:33 38,6 1,26
35,00 01:00:39 00:01:28 00:01:29 40,5 1,56
36,00 01:02:08 00:01:28 00:01:29 40,6 -1,33
37,00 01:03:33 00:01:24 00:01:25 42,4 3,32
38,00 01:05:05 00:01:32 00:01:33 38,9 1,40
39,00 01:06:42 00:01:37 00:01:37 37,1 -0,02
40,00 01:08:30 00:01:47 00:01:48 33,4 8,75
40,14 01:08:52 00:00:21 00:02:33 23,5 1,03